1 de octubre de 2022

Hora Código Tiempo Temp. Visibilidad Cielo nuboso Viento METAR/SPECI
03:30
V
9 °C 10 km+ 4.100 ft 030° 030° 3 kt METAR LFCK 010130Z AUTO 03003KT 340V060 9999 OVC041 09/07 Q1021
03:00
V
8 °C 10 km+ - Var Var 3 kt METAR LFCK 010100Z AUTO VRB03KT 9999 SCT045 08/07 Q1021
02:30
V
8 °C 10 km+ - 040° 040° 3 kt METAR LFCK 010030Z AUTO 04003KT 9999 FEW048 SCT054 08/07 Q1021
02:00
V
8 °C 10 km+ - Var Var 2 kt METAR LFCK 010000Z AUTO VRB02KT CAVOK 08/07 Q1021
01:30
V
8 °C 10 km+ - Var Var 2 kt METAR LFCK 302330Z AUTO VRB02KT CAVOK 08/07 Q1021
01:00
V
9 °C 10 km+ - 010° 010° 3 kt METAR LFCK 302300Z AUTO 01003KT 340V040 CAVOK 09/07 Q1021
00:30
V
8 °C 10 km+ - Var Var 2 kt METAR LFCK 302230Z AUTO VRB02KT CAVOK 08/07 Q1020
00:00
V
8 °C 10 km+ - 040° 040° 4 kt METAR LFCK 302200Z AUTO 04004KT CAVOK 08/07 Q1020

30 de septiembre de 2022

Hora Código Tiempo Temp. Visibilidad Cielo nuboso Viento METAR/SPECI
23:30
V
9 °C 10 km+ - 020° 020° 3 kt METAR LFCK 302130Z AUTO 02003KT CAVOK 09/08 Q1020
23:00
V
10 °C 10 km+ - 350° 350° 2 kt METAR LFCK 302100Z AUTO 35002KT CAVOK 10/07 Q1020 NOSIG
22:30
V
11 °C 10 km+ - Var Var 2 kt METAR LFCK 302030Z AUTO VRB02KT CAVOK 11/07 Q1019 NOSIG
22:00
V
11 °C 10 km+ - Var Var 2 kt METAR LFCK 302000Z AUTO VRB02KT CAVOK 11/07 Q1019 NOSIG
21:30
V
13 °C 10 km+ - 290° 290° 4 kt METAR LFCK 301930Z AUTO 29004KT 270V340 CAVOK 13/07 Q1019 NOSIG
21:00
V
14 °C 10 km+ - 300° 300° 6 kt METAR LFCK 301900Z AUTO 30006KT CAVOK 14/08 Q1018 NOSIG
20:30
V
14 °C 10 km+ - 300° 300° 8 kt METAR LFCK 301830Z AUTO 30008KT CAVOK 14/08 Q1018 NOSIG
20:00
V
15 °C 10 km+ - 310° 310° 8 kt METAR LFCK 301800Z AUTO 31008KT CAVOK 15/07 Q1018 NOSIG
19:30
V
15 °C 10 km+ - 310° 310° 11 kt METAR LFCK 301730Z AUTO 31011KT CAVOK 15/07 Q1017 NOSIG
19:00
V
16 °C 10 km+ - 310° 310° 13 kt METAR LFCK 301700Z AUTO 31013KT 9999 FEW047 SCT074 16/07 Q1016 NOSIG
18:30
V
16 °C 10 km+ 7.400 ft 300° 300° 14 kt METAR LFCK 301630Z AUTO 30014KT 9999 FEW048 SCT058 BKN074 16/07 Q1016 NOSIG
18:00
V
16 °C 10 km+ - 310° 310° 15 kt METAR LFCK 301600Z AUTO 31015KT 9999 FEW049 16/07 Q1015 TEMPO 30016G26KT
17:30
V
17 °C 10 km+ 7.000 ft 310° 310° 17 kt METAR LFCK 301530Z AUTO 31017KT 280V340 9999 SCT049 BKN070 BKN080 17/07 Q1015 TEMPO 30016G26KT
17:00
V
18 °C 10 km+ - 300° 300° 16 kt METAR LFCK 301500Z AUTO 30016KT CAVOK 18/07 Q1015 TEMPO 30016G26KT
16:30
V
17 °C 10 km+ 6.000 ft 310° 310° 19 kt METAR LFCK 301430Z AUTO 31019KT 9999 FEW043 BKN060 BKN076 17/07 Q1015 NOSIG
16:00
V
17 °C 10 km+ 8.400 ft 300° 300° 13 kt METAR LFCK 301400Z AUTO 30013KT 9999 FEW042/// BKN084/// ///TCU 17/08 Q1015 BECMG SCT030
15:30
V
16 °C 10 km+ 8.200 ft 290° 290° 18 kt METAR LFCK 301330Z AUTO 29018KT 9999 FEW035 BKN082 16/08 Q1015 NOSIG
15:00
V
16 °C 10 km+ 3.800 ft 290° 290° 17 kt METAR LFCK 301300Z AUTO 29017KT 9999 SCT032 BKN038 16/08 Q1015 NOSIG
14:30
V
16 °C 10 km+ 3.000 ft 290° 290° 15 kt METAR LFCK 301230Z AUTO 29015KT 9999 BKN030 BKN040 BKN052 16/09 Q1015 NOSIG
14:00
V
15 °C 10 km+ 3.500 ft 290° 290° 14 kt METAR LFCK 301200Z AUTO 29014KT 9999 SCT029 BKN035 BKN042 15/09 Q1015 NOSIG
13:30
M
15 °C 10 km+ 2.200 ft 290° 290° 13 kt METAR LFCK 301130Z AUTO 29013KT 9999 BKN022 BKN028 BKN033 15/09 Q1015 NOSIG
13:00
M
14 °C 10 km+ 1.900 ft 280° 280° 10 kt METAR LFCK 301100Z AUTO 28010KT 9999 BKN019 OVC028 14/10 Q1015 TEMPO BKN014
12:30
M
13 °C 10 km+ 1.600 ft 300° 300° 9 kt METAR LFCK 301030Z AUTO 30009KT 9999 BKN016 OVC022 13/09 Q1015 TEMPO BKN014
12:00
M
12 °C 10 km+ 1.400 ft 290° 290° 9 kt METAR LFCK 301000Z AUTO 29009KT 9999 BKN014 BKN022 OVC030 12/11 Q1014 NOSIG
11:30
M
12 °C 10 km+ 1.000 ft 300° 300° 9 kt METAR LFCK 300930Z AUTO 30009KT 270V330 9999 BKN010 OVC016 12/10 Q1014 NOSIG
11:00
I
11 °C 10 km+ 800 ft 290° 290° 10 kt METAR LFCK 300900Z AUTO 29010KT 9999 BKN008 OVC014 11/10 Q1014 TEMPO BKN006 SCT017TCU
10:30
I
11 °C 10 km+ 600 ft 300° 300° 9 kt METAR LFCK 300830Z AUTO 30009KT 9999 BKN006/// OVC011/// ///TCU 11/10 Q1014 BECMG BKN012
10:00
I
11 °C 10 km+ 600 ft 290° 290° 8 kt METAR LFCK 300800Z AUTO 29008KT 9999 -RA OVC006/// ///TCU 11/10 Q1013 NOSIG
09:30
I
11 °C 10 km+ 600 ft 300° 300° 8 kt METAR LFCK 300730Z AUTO 30008KT 9999 -RADZ BKN006/// BKN010/// OVC046/// ///TCU 11/10 Q1013 NOSIG
09:00
I
11 °C 7 km 700 ft 300° 300° 10 kt METAR LFCK 300700Z AUTO 30010KT 7000 RA BKN007/// BKN014/// BKN046/// ///CB 11/10 Q1012 BECMG NSW
08:30
I
11 °C 10 km+ 800 ft 290° 290° 10 kt METAR LFCK 300630Z AUTO 29010KT 9999 BKN008/// OVC013/// ///CB 11/10 Q1012 NOSIG
08:00
M
11 °C 10 km+ 1.200 ft 300° 300° 9 kt METAR LFCK 300600Z AUTO 30009KT 9999 OVC012/// ///CB 11/10 Q1011
07:30
I
11 °C 10 km+ 900 ft 300° 300° 11 kt METAR LFCK 300530Z AUTO 30011KT 9999 BKN009 OVC014 11/10 Q1011
07:00
M
11 °C 10 km+ 1.000 ft 290° 290° 8 kt METAR LFCK 300500Z AUTO 29008KT 9999 BKN010 OVC014 11/10 Q1010
06:30
I
11 °C 10 km+ 800 ft 300° 300° 10 kt METAR LFCK 300430Z AUTO 30010KT 9999 OVC008 11/10 Q1010
06:00
I
11 °C 10 km+ 900 ft 300° 300° 9 kt METAR LFCK 300400Z AUTO 30009KT 9999 OVC009 11/10 Q1010
05:30
I
11 °C 10 km+ 700 ft 280° 280° 9 kt METAR LFCK 300330Z AUTO 28009KT 9999 BKN007 OVC015 11/10 Q1010
05:00
M
11 °C 10 km+ 1.600 ft 290° 290° 8 kt METAR LFCK 300300Z AUTO 29008KT 9999 FEW007/// OVC016/// ///TCU 11/10 Q1010
04:30
M
11 °C 10 km+ 1.900 ft 300° 300° 10 kt METAR LFCK 300230Z AUTO 30010KT 9999 FEW007/// OVC019/// ///TCU 11/11 Q1009
04:00
I
11 °C 10 km+ 600 ft 290° 290° 9 kt METAR LFCK 300200Z AUTO 29009KT 9999 BKN006 OVC018 11/11 Q1009
03:30
I
12 °C 10 km+ 700 ft 290° 290° 9 kt METAR LFCK 300130Z AUTO 29009KT 9999 BKN007 OVC012 12/11 Q1009
03:00
I
11 °C 10 km+ 900 ft 320° 320° 4 kt METAR LFCK 300100Z AUTO 32004KT 9999 BKN009/// BKN013/// BKN019/// ///CB 11/11 Q1009
02:30
V
12 °C 10 km+ 5.000 ft 290° 290° 5 kt METAR LFCK 300030Z AUTO 29005KT 9999 RA FEW017/// BKN050/// OVC060/// ///CB 12/11 Q1009
02:00
M
11 °C 10 km+ 1.200 ft 290° 290° 5 kt METAR LFCK 300000Z AUTO 29005KT 9999 -RA SCT007/// BKN012/// BKN019/// ///TCU 11/11 Q1009
01:30
M
11 °C 10 km+ 1.200 ft 300° 300° 5 kt METAR LFCK 292330Z AUTO 30005KT 9999 BKN012/// OVC025/// ///TCU 11/11 Q1009
01:00
M
11 °C 10 km+ 1.500 ft 300° 300° 3 kt METAR LFCK 292300Z AUTO 30003KT 9999 FEW008 BKN015 OVC021 11/11 Q1008
00:30
M
12 °C 7 km 1.900 ft 320° 320° 3 kt METAR LFCK 292230Z AUTO 32003KT 7000 -RA FEW011/// BKN019/// BKN027/// ///TCU 12/11 Q1008
00:00
V
12 °C 10 km+ 5.400 ft 320° 320° 3 kt METAR LFCK 292200Z AUTO 32003KT 9999 RA FEW032/// BKN054/// OVC066/// ///CB 12/11 Q1008

29 de septiembre de 2022

Hora Código Tiempo Temp. Visibilidad Cielo nuboso Viento METAR/SPECI
23:30
V
12 °C 10 km+ 5.400 ft 330° 330° 3 kt METAR LFCK 292130Z AUTO 33003KT 9999 FEW016/// OVC054/// ///CB 12/11 Q1008
23:00
M
12 °C 10 km+ 2.000 ft 280° 280° 3 kt METAR LFCK 292100Z AUTO 28003KT 9999 -RA SCT015/// BKN020/// BKN046/// ///TCU 12/11 Q1007
22:30
M
12 °C 10 km+ 1.300 ft 260° 260° 5 kt METAR LFCK 292030Z AUTO 26005KT 9999 -RA SCT008/// BKN013/// BKN020/// ///CB 12/11 Q1007
22:00
M
12 °C 8 km 1.100 ft 270° 270° 5 kt METAR LFCK 292000Z AUTO 27005KT 8000 RA FEW006/// BKN011/// BKN018/// ///CB 12/12 Q1007
21:30
V
12 °C 10 km+ 6.400 ft 290° 290° 5 kt METAR LFCK 291930Z AUTO 29005KT 9999 RA FEW013/// SCT054/// BKN064/// ///CB 12/12 Q1007
21:00
I
12 °C 10 km+ 900 ft 250° 250° 4 kt METAR LFCK 291900Z AUTO 25004KT 9999 -RA BKN009/// BKN021/// BKN047/// ///CB 12/11 Q1006
20:30
V
12 °C 10 km+ 3.700 ft 260° 260° 4 kt METAR LFCK 291830Z AUTO 26004KT 9999 -RA SCT007/// BKN037/// BKN064/// ///CB 12/11 Q1006
20:00
V
12 °C 10 km+ 3.500 ft 240° 240° 5 kt METAR LFCK 291800Z AUTO 24005KT 9999 -RA FEW009/// SCT029/// BKN035/// ///CB 12/11 Q1006
19:30
V
13 °C 10 km+ - 260° 260° 6 kt METAR LFCK 291730Z AUTO 26006KT 9999 -RA ///CB 13/11 Q1006 TEMPO 1500 RA BKN007 SCT020CB
19:00
V
13 °C 10 km+ 5.600 ft 320° 320° 6 kt METAR LFCK 291700Z AUTO 32006KT 9999 RA FEW037/// BKN056/// OVC068/// ///TCU 13/11 Q1005 TEMPO 1500 RA BKN007 SCT020CB
18:30
V
13 °C 10 km+ 3.300 ft 330° 330° 11 kt METAR LFCK 291630Z AUTO 33011KT 9999 FEW014/// OVC033/// ///CB 13/11 Q1005 TEMPO 1500 RA BKN007 SCT020CB
18:00
V
14 °C 10 km+ 4.900 ft 320° 320° 11 kt METAR LFCK 291600Z AUTO 32011KT 9999 FEW023/// SCT040/// BKN049/// ///CB 14/11 Q1004 TEMPO 1500 RA BKN007 SCT020CB
17:30
M
16 °C 10 km+ 2.700 ft 300° 300° 13 - 24 kt METAR LFCK 291530Z AUTO 30013G24KT 260V320 9999 BKN027/// OVC035/// ///CB 16/11 Q1004 TEMPO 1500 RA BKN007 SCT020CB
17:00
M
15 °C 10 km+ 2.300 ft 260° 260° 8 kt METAR LFCK 291500Z AUTO 26008KT 9999 BKN023/// OVC030/// ///CB 15/11 Q1004 TEMPO 1500 RA BKN007 SCT020CB
16:30
M
15 °C 10 km+ 2.500 ft 260° 260° 7 kt METAR LFCK 291430Z AUTO 26007KT 9999 BKN025/// BKN030/// OVC046/// ///CB 15/12 Q1004 TEMPO 2000 RA BKN007 SCT020CB
16:00
V
15 °C 10 km+ 3.900 ft 310° 310° 12 kt METAR LFCK 291400Z AUTO 31012KT 9999 FEW023/// SCT031/// BKN039/// ///CB 15/11 Q1004 TEMPO 4000 SHRA BKN009 SCT018CB
15:30
M
16 °C 10 km+ 2.800 ft 280° 280° 7 kt METAR LFCK 291330Z AUTO 28007KT 250V310 9999 SCT021/// BKN028/// BKN045/// ///TCU 16/12 Q1004 TEMPO 4000 SHRA BKN009 SCT018CB
15:00
M
16 °C 10 km+ 2.300 ft 240° 240° 13 kt METAR LFCK 291300Z AUTO 24013KT 9999 BKN023/// BKN031/// BKN044/// ///TCU 16/12 Q1004 TEMPO 4000 SHRA BKN009 SCT018CB BECMG 30012KT
14:30
V
16 °C 10 km+ 3.000 ft 260° 260° 15 kt METAR LFCK 291230Z AUTO 26015KT 9999 SCT023/// BKN030/// BKN038/// ///CB 16/11 Q1004 TEMPO 4000 SHRA BKN009 SCT018CB
14:00
M
15 °C 10 km+ 1.800 ft 310° 310° 11 kt METAR LFCK 291200Z AUTO 31011KT 260V340 9999 BKN018/// BKN023/// BKN030/// ///TCU 15/12 Q1004 TEMPO 4000 SHRA BKN009 SCT018CB
13:30
M
16 °C 10 km+ 1.800 ft 270° 270° 13 kt METAR LFCK 291130Z AUTO 27013KT 9999 BKN018/// BKN028/// OVC047/// ///TCU 16/12 Q1004 TEMPO 4000 SHRA BKN010TCU
13:00
M
15 °C 10 km+ 1.300 ft 280° 280° 9 kt METAR LFCK 291100Z AUTO 28009KT 250V310 9999 SCT009/// BKN013/// BKN038/// ///CB 15/12 Q1005 TEMPO 4000 SHRA
12:30
I
14 °C 10 km+ 800 ft 280° 280° 11 kt METAR LFCK 291030Z AUTO 28011KT 9999 -RA BKN008/// BKN014/// BKN032/// ///CB 14/12 Q1005 TEMPO 4000 SHRA BKN010TCU
12:00
I
14 °C 10 km+ 800 ft 290° 290° 6 kt METAR LFCK 291000Z AUTO 29006KT 260V320 9999 BKN008/// BKN016/// OVC054/// ///TCU 14/13 Q1005 TEMPO 4000 SHRA BKN010TCU
11:30
M
14 °C 10 km+ 1.800 ft 290° 290° 5 kt METAR LFCK 290930Z AUTO 29005KT 250V330 9999 -RA FEW009/// SCT013/// BKN018/// ///TCU 14/12 Q1005 TEMPO 4000 SHRA BKN010TCU
11:00
I
13 °C 10 km+ 800 ft 330° 330° 5 kt METAR LFCK 290900Z AUTO 33005KT 9999 BKN008/// BKN013/// OVC019/// ///TCU 13/12 Q1005 TEMPO 4000 SHRA BKN010TCU
10:30
M
13 °C 10 km+ 1.000 ft 340° 340° 8 kt METAR LFCK 290830Z AUTO 34008KT 9999 BKN010/// BKN017/// OVC028/// ///TCU 13/12 Q1005 TEMPO 4000 SHRA BECMG 27010KT
10:00
M
12 °C 9 km 1.300 ft 350° 350° 7 kt METAR LFCK 290800Z AUTO 35007KT 9000 -RA FEW005/// BKN013/// BKN021/// ///TCU 12/12 Q1005 TEMPO 4000 SHRA BECMG 27010KT
09:30
L
12 °C 1,4 km 600 ft 320° 320° 9 kt METAR LFCK 290730Z AUTO 32009KT 280V360 3900 1400 R14/2000D +RA BR BKN006/// BKN011/// BKN018/// ///TCU 12/11 Q1005 TEMPO BKN012TCU
09:00
M
13 °C 10 km+ 1.000 ft 270° 270° 9 kt METAR LFCK 290700Z AUTO 27009KT 9999 OVC010/// ///TCU 13/12 Q1005 TEMPO 4000 SHRA
08:30
I
12 °C 10 km+ 700 ft 340° 340° 4 kt METAR LFCK 290630Z AUTO 34004KT 280V350 9999 OVC007/// ///TCU 12/12 Q1005 TEMPO 4000 SHRA BKN012TCU
08:00
I
12 °C 10 km+ 700 ft 310° 310° 3 kt METAR LFCK 290600Z AUTO 31003KT 250V020 9999 OVC007/// ///TCU 12/12 Q1005 TEMPO 3000 RA
07:30
I
12 °C 10 km+ 800 ft 300° 300° 5 kt METAR LFCK 290530Z AUTO 30005KT 270V340 9999 -DZ BKN008/// OVC014/// ///TCU 12/12 Q1005
07:00
M
12 °C 10 km+ 1.000 ft 290° 290° 4 kt METAR LFCK 290500Z AUTO 29004KT 9999 -RA BKN010/// BKN016/// OVC022/// ///TCU 12/12 Q1005
06:30
M
12 °C 8 km 1.200 ft 310° 310° 7 kt METAR LFCK 290430Z AUTO 31007KT 280V360 8000 RA FEW007/// BKN012/// OVC017/// ///CB 12/12 Q1005
06:00
L
13 °C 1,4 km 700 ft 280° 280° 12 - 24 kt METAR LFCK 290400Z AUTO 28012G24KT 230V340 9999 1400 R14/1400D FEW003/// BKN007/// BKN015/// ///CB 13/12 Q1005
05:30
I
13 °C 4,3 km 800 ft 310° 310° 10 kt METAR LFCK 290330Z AUTO 31010KT 4300 +RA BR BKN008/// BKN015/// BKN022/// ///CB 13/12 Q1005
05:00
M
14 °C 10 km+ 1.900 ft 290° 290° 10 kt METAR LFCK 290300Z AUTO 29010KT 9999 -RA FEW011/// BKN019/// OVC035/// ///TCU 14/12 Q1006
04:30
M
14 °C 10 km+ 2.000 ft 270° 270° 11 kt METAR LFCK 290230Z AUTO 27011KT 9999 FEW010/// SCT014/// BKN020/// ///TCU 14/12 Q1006
04:00
M
14 °C 10 km+ 1.700 ft 270° 270° 11 kt METAR LFCK 290200Z AUTO 27011KT 9999 BKN017/// OVC022/// ///TCU 14/12 Q1006
03:30
M
14 °C 10 km+ 2.200 ft 270° 270° 12 kt METAR LFCK 290130Z AUTO 27012KT 9999 FEW017/// BKN022/// OVC027/// ///CB 14/12 Q1007
03:00
M
14 °C 10 km+ 2.100 ft 270° 270° 16 kt METAR LFCK 290100Z AUTO 27016KT 9999 SCT014/// BKN021/// BKN030/// ///TCU 14/12 Q1007
02:30
M
14 °C 10 km+ 1.400 ft 260° 260° 16 kt METAR LFCK 290030Z AUTO 26016KT 9999 BKN014 OVC020 14/12 Q1007
02:00
M
14 °C 10 km+ 1.300 ft 270° 270° 15 kt METAR LFCK 290000Z AUTO 27015KT 9999 BKN013 OVC020 14/13 Q1007
01:30
M
14 °C 10 km+ 1.300 ft 270° 270° 14 kt METAR LFCK 282330Z AUTO 27014KT 9999 OVC013 14/13 Q1007
01:00
M
14 °C 10 km+ 1.100 ft 280° 280° 11 kt METAR LFCK 282300Z AUTO 28011KT 250V310 9999 OVC011 14/13 Q1007
00:30
M
14 °C 10 km+ 1.300 ft 270° 270° 11 kt METAR LFCK 282230Z AUTO 27011KT 9999 OVC013 14/13 Q1008
00:00
M
14 °C 10 km+ 1.300 ft 270° 270° 15 kt METAR LFCK 282200Z AUTO 27015KT 9999 BKN013/// OVC018/// ///TCU 14/13 Q1008

28 de septiembre de 2022

Hora Código Tiempo Temp. Visibilidad Cielo nuboso Viento METAR/SPECI
23:30
M
14 °C 10 km+ 1.300 ft 280° 280° 11 kt METAR LFCK 282130Z AUTO 28011KT 9999 BKN013 BKN026 BKN041 14/13 Q1008
23:00
V
14 °C 10 km+ 3.000 ft 290° 290° 17 kt METAR LFCK 282100Z AUTO 29017KT 9999 DZ FEW010/// SCT019/// BKN030/// ///CB 14/13 Q1008 TEMPO 2000 SHRA BKN009 SCT013CB
22:30
I
14 °C 3,5 km 1.200 ft 280° 280° 15 kt METAR LFCK 282030Z AUTO 28015KT 9000 3500 -RA BKN012/// BKN019/// OVC024/// ///TCU 14/13 Q1008 TEMPO 2000 SHRA BKN009 SCT013CB
22:00
M
15 °C 10 km+ 1.500 ft 290° 290° 11 kt METAR LFCK 282000Z AUTO 29011KT 9999 FEW008/// BKN015/// BKN021/// ///CB 15/13 Q1008 TEMPO 2000 SHRA BKN009 SCT013CB
21:30
I
15 °C 5 km 800 ft 270° 270° 18 kt METAR LFCK 281930Z AUTO 27018KT 5000 -RA BR BKN008/// BKN018/// OVC024/// ///TCU 15/14 Q1008 TEMPO 2000 SHRA BKN009 SCT013CB
21:00
M
15 °C 10 km+ 2.000 ft 270° 270° 12 kt METAR LFCK 281900Z AUTO 27012KT 9999 BKN020/// BKN030/// OVC036/// ///TCU 15/13 Q1008 TEMPO 28017G27KT 2000 SHRA BKN009 SCT013CB
20:30
V
15 °C 10 km+ 3.200 ft 260° 260° 11 kt METAR LFCK 281830Z AUTO 26011KT 9999 FEW019/// OVC032/// ///TCU 15/14 Q1008 TEMPO 28017G27KT 2000 SHRA BKN009 SCT013CB
20:00
V
15 °C 10 km+ 3.000 ft 260° 260° 13 kt METAR LFCK 281800Z AUTO 26013KT 9999 FEW009 BKN030 OVC038 15/13 Q1008 TEMPO 28017G27KT 2000 SHRA BKN009 SCT013CB
19:30
I
15 °C 10 km+ 800 ft 260° 260° 12 kt METAR LFCK 281730Z AUTO 26012KT 9999 -RA BKN008 BKN012 OVC019 15/14 Q1007 TEMPO 28017G27KT 3000 SHRA SCT013CB
19:00
M
16 °C 10 km+ 2.000 ft 270° 270° 9 kt METAR LFCK 281700Z AUTO 27009KT 9999 OVC020/// ///TCU 16/14 Q1007 TEMPO 28017G27KT 3000 SHRA SCT013CB
Datos más antiguos

Nosotros y terceros seguimos tu comportamiento en Internet en nuestro sitio web con cookies. Si continúas, asumimos que estás de acuerdo con nuestra política de cookies. Más información